Historyczne dane pomiarowe

Dodano dane terminowe – wersja testowa.

Dane z okresu 1951-2019

Wersja bazy: 1.34 [2019-03-16, lista zmian], aktualizacja planowana na 2019-04-15

Dane meteo z obszaru Polski uzyskane na podstawie danych udostępnionych przez Instytut Meteorologii i Gospodarki Wodnej – Państwowy Instytut Badawczy.

 

Wybierz Datę:    

       

TemperaturaWilgotnośćWiatrCiśnienieOpadyŚniegCzas trwania zjawisk
 Stacja t tx tn tng RH VA  wxwx mslp ppp RRR   cm mm wxwxwxwxwxwxwx
1983-08-14 12.8 18.7 10.1 9.4-- 2.7 2.0---- 0.0------------
1983-08-13 14.6 18.9 11.3 9.3-- 7.7 2.3---- 5.0------------
1983-08-12 20.2 27.5 16.0 14.5-- 3.0 3.7---- 2.4------------
1983-08-11 19.2 24.1 16.0 14.0-- 8.0 2.0---- 0.0------------
1983-08-10 20.3 26.5 12.7 11.6-- 3.3 3.7---- 0.0------------
1983-08-09 20.8 26.8 15.5 14.0-- 1.0 3.3---- 0.0------------
1983-08-08 19.6 26.3 14.0 12.6-- 5.0 4.0---- 1.2------------
1983-08-07 19.7 26.1 16.0 15.4-- 5.3 4.3---- 1.1------------
1983-08-06 15.6 22.1 7.6 6.6-- 4.0 2.0---- 3.7------------
1983-08-05 13.6 16.1 11.4 11.9-- 8.0 2.0---- 0.0------------
1983-08-04 16.2 23.6 13.0 12.4-- 8.0 1.3---- 8.2------------
1983-08-03 21.9 29.2 15.7 13.8-- 5.3 2.7---- 0.0------------
1983-08-02 21.3 28.6 11.9 9.2-- 2.0 2.7---- 0.0------------
1983-08-01 19.3 27.5 8.9 6.6-- 0.0 2.0---- 0.0------------
1983-07-31 17.7 23.1 10.0 7.7-- 0.7 3.0---- 0.0------------
1983-07-30 16.5 20.1 12.5 10.3-- 8.0 2.7---- 0.0------------
1983-07-29 18.5 24.9 13.6 11.8-- 6.7 2.3---- 0.1------------
1983-07-28 21.1 25.5 17.7 15.7-- 5.3 2.0---- 0.0------------
1983-07-27 22.8 29.3 15.5 13.7-- 0.0 2.0---- 1.0------------
1983-07-26 19.3 27.1 13.5 12.5-- 6.3 4.7---- 0.0------------
1983-07-25 15.0 17.7 8.5 6.8-- 8.0 6.3---- 0.0------------
1983-07-24 15.0 19.5 7.8 7.1-- 7.0 0.3---- 0.0------------
1983-07-23 14.2 19.1 10.2 10.0-- 7.7 2.7---- 9.0------------
1983-07-22 14.5 19.5 10.5 9.5-- 6.0 3.3---- 1.8------------
1983-07-21 12.6 16.6 8.1 6.6-- 7.3 5.3---- 0.0------------
1983-07-20 15.9 24.8 11.4 12.3-- 7.3 4.3---- 12.8------------
1983-07-19 22.3 27.8 15.5 13.0-- 4.0 3.0---- 3.3------------
1983-07-18 20.1 27.5 9.3 7.9-- 0.0 1.0---- 0.0------------
1983-07-17 19.9 24.8 15.0 14.0-- 1.0 2.0---- 0.0------------
1983-07-16 21.3 28.8 13.0 10.6-- 1.7 1.7---- 0.0------------
1983-07-15 18.7 24.9 13.5 13.0-- 3.0 2.7---- 0.0------------
1983-07-14 19.5 25.0 16.0 15.0-- 5.3 3.3---- 13.1------------
1983-07-13 19.8 24.8 14.3 13.5-- 4.3 1.7---- 0.7------------
1983-07-12 18.0 23.5 16.0 14.8-- 6.0 2.0---- 2.4------------
1983-07-11 21.4 27.8 15.1 13.0-- 6.3 1.7---- 18.8------------
1983-07-10 22.1 29.0 13.2 12.1-- 3.3 2.3---- 0.0------------
1983-07-09 21.5 28.6 12.5 9.6-- 3.0 3.0---- 0.0------------
1983-07-08 19.2 27.7 9.0 6.1-- 0.0 3.0---- 0.0------------
1983-07-07 20.0 26.7 8.3 6.1-- 0.0 2.0---- 0.0------------
1983-07-06 19.8 27.5 8.5 6.6-- 0.0 1.7---- 0.0------------
1983-07-05 19.0 24.5 12.3 10.1-- 0.0 2.0---- 0.0------------
1983-07-04 19.3 27.3 7.1 4.9-- 3.0 1.3---- 0.0------------
1983-07-03 18.8 24.5 9.6 6.0-- 0.0 3.3---- 0.0------------
1983-07-02 19.6 24.8 13.8 11.7-- 5.0 3.7---- 0.0------------
1983-07-01 20.5 27.4 11.0 9.6-- 3.7 2.0---- 0.0------------
1983-06-30 16.5 24.4 5.2 3.0-- 0.7 2.0---- 0.0------------
1983-06-29 15.0 21.3 6.0 3.1-- 0.0 1.3---- 0.0------------
1983-06-28 17.4 21.6 13.5 12.1-- 8.0 2.3---- 5.5------------
1983-06-27 19.8 27.7 9.1 6.8-- 5.7 2.7---- 0.0------------
1983-06-26 19.5 25.8 15.0 13.5-- 0.0 2.7---- 0.0------------
1983-06-25 20.3 29.7 8.7 5.1-- 3.3 3.0---- 0.0------------
1983-06-24 17.9 26.8 4.5 0.9-- 0.0 1.3---- 0.0------------
1983-06-23 14.0 22.3 2.1 -1.4-- 0.0 2.0---- 0.0------------
1983-06-22 13.3 21.4 4.2 -0.8-- 0.0 4.0---- 0.0------------
1983-06-21 18.4 25.8 11.2 7.7-- 2.0 3.7---- 0.0------------
1983-06-20 19.5 25.1 14.5 14.5-- 3.3 3.0---- 0.0------------
1983-06-19 17.9 23.4 14.7 14.4-- 5.7 5.0---- 0.0------------
1983-06-18 15.1 18.5 11.8 12.1-- 8.0 6.0---- 0.6------------
1983-06-17 13.1 19.5 5.6 1.6-- 8.0 4.7---- 2.0------------
1983-06-16 13.2 17.8 10.8 11.1-- 6.0 7.0---- 0.6------------
365.5 ms

 

Źródłem pochodzenia danych jest Instytut Meteorologii i Gospodarki Wodnej – Państwowy Instytut Badawczy. Dane Instytutu Meteorologii i Gospodarki Wodnej – Państwowego Instytutu Badawczego zostały przetworzone.

Dane źródłowe można odnaleźć na stronie https://dane.imgw.pl